createdAt,value
2022-12-09T00:01:10.793Z,22.23
2022-12-09T00:03:39.387Z,21.13
2022-12-09T00:06:09.185Z,22.03
2022-12-09T00:08:37.743Z,23.30
2022-12-09T00:11:06.713Z,22.13
2022-12-09T00:13:36.186Z,22.53
2022-12-09T00:16:07.626Z,22.77
2022-12-09T00:18:36.572Z,21.97
2022-12-09T00:21:13.751Z,23.37
2022-12-09T00:23:41.954Z,23.97
2022-12-09T00:26:10.096Z,22.60
2022-12-09T00:28:39.923Z,21.97
2022-12-09T00:31:08.877Z,22.77
2022-12-09T00:33:37.308Z,21.13
2022-12-09T00:36:07.297Z,21.97
2022-12-09T00:38:35.618Z,21.53
2022-12-09T00:41:04.090Z,21.50
2022-12-09T00:43:32.174Z,23.33
2022-12-09T00:46:02.124Z,23.30
2022-12-09T00:48:31.032Z,22.07
2022-12-09T00:50:59.128Z,22.90
2022-12-09T00:53:27.588Z,22.47
2022-12-09T00:55:55.823Z,22.43
2022-12-09T00:58:23.967Z,22.60
2022-12-09T01:00:53.779Z,22.57
2022-12-09T01:03:23.464Z,22.43
2022-12-09T01:05:52.087Z,23.47
2022-12-09T01:08:20.450Z,22.93
2022-12-09T01:10:49.109Z,21.60
2022-12-09T01:13:18.212Z,21.90
2022-12-09T01:15:46.887Z,22.87
2022-12-09T01:18:15.104Z,22.27
2022-12-09T01:20:44.500Z,22.80
2022-12-09T01:23:12.681Z,21.97
2022-12-09T01:25:40.782Z,23.17
2022-12-09T01:28:09.049Z,24.37
2022-12-09T01:30:37.148Z,25.43
2022-12-09T01:33:05.396Z,23.57
2022-12-09T01:35:33.565Z,22.70
2022-12-09T01:38:03.104Z,23.07
2022-12-09T01:40:31.147Z,22.27
2022-12-09T01:42:59.571Z,23.27
2022-12-09T01:45:52.324Z,24.03
2022-12-09T01:48:22.354Z,24.30
2022-12-09T01:50:53.795Z,24.50
2022-12-09T01:53:27.289Z,24.33
2022-12-09T01:55:56.351Z,24.63
2022-12-09T01:58:25.376Z,23.60
2022-12-09T02:00:53.922Z,24.13
2022-12-09T02:03:22.457Z,23.93
2022-12-09T02:05:51.106Z,24.80
2022-12-09T02:08:20.462Z,24.77
2022-12-09T02:10:58.102Z,24.90
2022-12-09T02:13:33.314Z,23.87
2022-12-09T02:16:06.819Z,23.77
2022-12-09T02:18:41.531Z,23.87
2022-12-09T02:21:13.106Z,23.90
2022-12-09T02:23:44.220Z,24.47
2022-12-09T02:26:26.711Z,24.40
2022-12-09T02:29:14.840Z,24.73
2022-12-09T02:32:02.864Z,23.90
2022-12-09T02:34:34.732Z,23.00
2022-12-09T02:37:09.804Z,23.67
2022-12-09T02:39:45.358Z,22.80
2022-12-09T02:42:18.147Z,24.47
2022-12-09T02:44:49.541Z,24.43
2022-12-09T02:47:21.206Z,24.30
2022-12-09T02:49:55.285Z,23.40
2022-12-09T02:52:24.328Z,23.53
2022-12-09T02:54:52.998Z,24.53
2022-12-09T02:57:25.396Z,24.27
2022-12-09T02:59:53.752Z,24.30
2022-12-09T03:02:26.291Z,24.93
2022-12-09T03:05:10.317Z,24.43
2022-12-09T03:07:45.018Z,23.50
2022-12-09T03:10:19.595Z,25.43
2022-12-09T03:12:52.804Z,24.17
2022-12-09T03:15:26.368Z,24.43
2022-12-09T03:17:57.074Z,24.00
2022-12-09T03:20:31.719Z,25.60
2022-12-09T03:23:03.560Z,24.77
2022-12-09T03:25:35.573Z,25.10
2022-12-09T03:28:06.840Z,24.93
2022-12-09T03:30:39.137Z,24.70
2022-12-09T03:33:08.682Z,24.97
2022-12-09T03:35:42.396Z,26.20
2022-12-09T03:38:14.050Z,24.93
2022-12-09T03:40:44.003Z,25.37
2022-12-09T03:43:15.290Z,25.07
2022-12-09T03:45:44.284Z,24.77
2022-12-09T03:48:13.243Z,24.57
2022-12-09T03:50:49.538Z,25.57
2022-12-09T03:53:22.036Z,23.93
2022-12-09T03:55:56.205Z,25.53
2022-12-09T03:58:25.151Z,25.27
2022-12-09T04:00:53.524Z,24.60
2022-12-09T04:03:22.787Z,24.40
2022-12-09T04:05:52.387Z,24.90
2022-12-09T04:08:20.751Z,24.90
2022-12-09T04:10:48.829Z,26.67
2022-12-09T04:13:16.847Z,26.07
2022-12-09T04:15:44.958Z,25.10
2022-12-09T04:18:13.200Z,25.53
2022-12-09T04:20:41.296Z,24.07
2022-12-09T04:23:10.749Z,23.90
2022-12-09T04:25:39.293Z,24.47
2022-12-09T04:28:07.389Z,24.87
2022-12-09T04:30:36.027Z,25.00
2022-12-09T04:33:04.537Z,26.83
2022-12-09T04:35:32.681Z,25.83
2022-12-09T04:38:01.315Z,27.10
2022-12-09T04:40:30.886Z,27.63
2022-12-09T04:42:59.410Z,26.03
2022-12-09T04:45:27.498Z,25.90
2022-12-09T04:47:55.757Z,25.67
2022-12-09T04:50:23.831Z,26.53
2022-12-09T04:52:52.216Z,27.10
2022-12-09T04:55:20.542Z,25.47
2022-12-09T04:57:50.638Z,25.73
2022-12-09T05:00:20.246Z,26.07
2022-12-09T05:02:48.394Z,25.77
2022-12-09T05:05:16.740Z,25.43
2022-12-09T05:07:45.289Z,26.80
2022-12-09T05:10:14.491Z,25.83
2022-12-09T05:12:43.198Z,25.47
2022-12-09T05:15:13.271Z,27.70
2022-12-09T05:17:41.660Z,23.87
2022-12-09T05:20:10.706Z,25.37
2022-12-09T05:22:39.051Z,24.70
2022-12-09T05:25:07.876Z,26.07
2022-12-09T05:27:36.195Z,25.00
2022-12-09T05:30:05.250Z,25.77
2022-12-09T05:32:35.014Z,27.13
2022-12-09T05:35:03.308Z,27.67
2022-12-09T05:37:31.390Z,27.60
2022-12-09T05:39:59.433Z,28.13
2022-12-09T05:42:27.593Z,27.97
2022-12-09T05:44:56.408Z,29.53
2022-12-09T05:47:24.906Z,26.43
2022-12-09T05:49:54.869Z,26.63
2022-12-09T05:52:23.398Z,26.83
2022-12-09T05:54:51.909Z,25.53
2022-12-09T05:57:20.507Z,27.07
2022-12-09T05:59:48.773Z,25.73
2022-12-09T06:02:16.895Z,28.87
2022-12-09T06:04:45.418Z,28.63
2022-12-09T06:07:15.335Z,30.13
2022-12-09T06:09:44.491Z,29.37
2022-12-09T06:12:13.109Z,31.03
2022-12-09T06:14:41.574Z,30.00
2022-12-09T06:17:09.719Z,28.23
2022-12-09T06:19:38.380Z,27.37
2022-12-09T06:22:06.648Z,27.97
2022-12-09T06:24:36.526Z,27.37
2022-12-09T06:27:05.242Z,27.43
2022-12-09T06:29:33.729Z,28.03
2022-12-09T06:32:01.973Z,27.10
2022-12-09T06:34:30.565Z,27.07
2022-12-09T06:36:58.851Z,28.40
2022-12-09T06:39:26.892Z,28.10
2022-12-09T06:41:56.556Z,26.40
2022-12-09T06:44:25.711Z,28.27
2022-12-09T06:46:53.928Z,26.57
2022-12-09T06:49:22.327Z,26.60
2022-12-09T06:51:50.626Z,26.50
2022-12-09T06:54:19.289Z,28.47
2022-12-09T06:56:47.773Z,29.43
2022-12-09T06:59:17.569Z,28.33
2022-12-09T07:01:46.687Z,27.30
2022-12-09T07:04:15.811Z,29.03
2022-12-09T07:06:45.947Z,27.83
2022-12-09T07:09:16.636Z,29.40
2022-12-09T07:11:47.352Z,28.83
2022-12-09T07:14:19.340Z,29.17
2022-12-09T07:16:48.325Z,27.03
2022-12-09T07:19:19.096Z,28.70
2022-12-09T07:21:47.889Z,30.30
2022-12-09T07:24:16.693Z,30.23
2022-12-09T07:26:45.205Z,31.73
2022-12-09T07:29:14.023Z,41.17
2022-12-09T07:31:45.264Z,49.47
2022-12-09T07:34:13.715Z,39.50
2022-12-09T07:36:42.613Z,36.13
2022-12-09T07:39:14.727Z,34.37
2022-12-09T07:41:43.398Z,31.77
2022-12-09T07:44:12.744Z,29.73
2022-12-09T07:46:41.954Z,30.90
2022-12-09T07:49:12.865Z,32.50
2022-12-09T07:51:42.017Z,28.40
2022-12-09T07:54:13.780Z,26.93
2022-12-09T07:56:42.876Z,25.33
2022-12-09T07:59:13.147Z,26.77
2022-12-09T08:01:42.972Z,26.73
2022-12-09T08:04:13.406Z,25.40
2022-12-09T08:06:41.885Z,26.70
2022-12-09T08:09:13.583Z,25.57
2022-12-09T08:11:42.654Z,26.40
2022-12-09T08:14:13.482Z,26.83
2022-12-09T08:16:43.539Z,25.30
2022-12-09T08:19:14.669Z,25.53
2022-12-09T08:21:43.341Z,25.43
2022-12-09T08:24:13.206Z,25.43
2022-12-09T08:26:42.652Z,26.50
2022-12-09T08:29:13.320Z,25.87
2022-12-09T08:31:43.965Z,26.07
2022-12-09T08:34:14.395Z,26.23
2022-12-09T08:36:43.548Z,27.17
2022-12-09T08:39:12.448Z,26.00
2022-12-09T08:41:41.840Z,25.47
2022-12-09T08:44:12.058Z,25.83
2022-12-09T08:46:42.844Z,25.97
2022-12-09T08:49:11.832Z,26.13
2022-12-09T08:51:41.945Z,27.20
2022-12-09T08:54:10.716Z,26.53
2022-12-09T08:56:39.489Z,26.90
2022-12-09T08:59:08.300Z,27.20
2022-12-09T09:01:36.619Z,28.13
2022-12-09T09:04:07.735Z,27.20
2022-12-09T09:06:36.640Z,26.93
2022-12-09T09:09:07.983Z,28.40
2022-12-09T09:11:37.918Z,27.80
2022-12-09T09:14:08.487Z,30.10
2022-12-09T09:16:38.902Z,30.55
2022-12-09T09:19:07.789Z,29.10
2022-12-09T09:21:37.023Z,27.47
2022-12-09T09:24:12.295Z,29.30
2022-12-09T09:26:42.954Z,28.97
2022-12-09T09:29:12.863Z,29.73
2022-12-09T09:31:42.037Z,31.13
2022-12-09T09:34:11.493Z,28.17
2022-12-09T09:36:41.430Z,30.23
2022-12-09T09:39:11.307Z,28.50
2022-12-09T09:41:46.404Z,27.57
2022-12-09T09:44:23.133Z,36.10
2022-12-09T09:46:53.515Z,31.53
2022-12-09T09:49:31.059Z,30.53
2022-12-09T09:52:00.572Z,30.47
2022-12-09T09:54:30.481Z,31.03
2022-12-09T09:57:05.156Z,30.83
2022-12-09T09:59:44.587Z,31.20
2022-12-09T10:02:24.056Z,31.07
2022-12-09T10:05:03.463Z,31.73
2022-12-09T10:07:39.546Z,30.40
2022-12-09T10:10:19.439Z,28.43
2022-12-09T10:13:06.062Z,31.52
2022-12-09T10:15:43.042Z,31.23
2022-12-09T10:18:18.319Z,30.93
2022-12-09T10:20:47.112Z,31.13
2022-12-09T10:23:18.063Z,32.90
2022-12-09T10:25:51.965Z,29.80
2022-12-09T10:28:23.166Z,28.70
2022-12-09T10:30:52.886Z,27.93
2022-12-09T10:33:29.390Z,29.07
2022-12-09T10:35:57.841Z,35.83
2022-12-09T10:38:27.545Z,29.67
2022-12-09T10:41:06.485Z,33.95
2022-12-09T10:43:37.588Z,29.57
2022-12-09T10:46:18.096Z,30.17
2022-12-09T10:48:54.194Z,30.43
2022-12-09T10:51:25.110Z,33.40
2022-12-09T10:53:58.746Z,30.17
2022-12-09T10:56:30.934Z,30.37
2022-12-09T10:59:29.970Z,29.13
2022-12-09T11:02:01.665Z,30.17
2022-12-09T11:04:32.905Z,29.93
2022-12-09T11:07:05.414Z,30.10
2022-12-09T11:09:38.702Z,29.70
2022-12-09T11:12:20.206Z,30.07
2022-12-09T11:14:54.070Z,28.73
2022-12-09T11:17:25.165Z,28.20
2022-12-09T11:19:56.007Z,30.67
2022-12-09T11:22:36.423Z,28.40
2022-12-09T11:25:20.202Z,32.33
2022-12-09T11:27:54.585Z,30.30
2022-12-09T11:30:25.924Z,29.20
2022-12-09T11:32:59.806Z,30.70
2022-12-09T11:35:33.248Z,30.87
2022-12-09T11:38:05.473Z,29.97
2022-12-09T11:40:34.165Z,29.77
2022-12-09T11:43:03.846Z,31.47
2022-12-09T11:45:35.042Z,29.70
2022-12-09T11:48:27.938Z,30.93
2022-12-09T11:50:56.618Z,32.83
2022-12-09T11:53:29.892Z,31.60
2022-12-09T11:56:04.059Z,31.70
2022-12-09T11:58:43.304Z,33.70
2022-12-09T12:01:16.907Z,33.00
2022-12-09T12:03:49.115Z,34.07
2022-12-09T12:06:23.026Z,33.97
2022-12-09T12:08:55.711Z,34.47
2022-12-09T12:11:29.501Z,34.60
2022-12-09T12:14:05.312Z,32.97
2022-12-09T12:16:43.723Z,34.27
2022-12-09T12:19:18.101Z,34.70
2022-12-09T12:22:08.157Z,31.60
2022-12-09T12:24:55.413Z,31.53
2022-12-09T12:27:35.152Z,31.87
2022-12-09T12:30:10.214Z,32.30
2022-12-09T12:33:33.124Z,32.67
2022-12-09T12:35:55.822Z,34.80
2022-12-09T12:38:32.825Z,32.67
2022-12-09T12:41:11.641Z,33.50
2022-12-09T12:44:11.711Z,34.17
2022-12-09T12:46:51.802Z,32.83
2022-12-09T12:49:48.711Z,34.43
2022-12-09T12:52:55.036Z,33.50
2022-12-09T12:55:27.679Z,34.43
2022-12-09T12:58:06.005Z,35.03
2022-12-09T13:00:39.361Z,36.93
2022-12-09T13:03:20.934Z,35.43
2022-12-09T13:05:52.714Z,34.80
2022-12-09T13:08:27.328Z,35.40
2022-12-09T13:10:58.271Z,34.43
2022-12-09T13:13:30.773Z,35.00
2022-12-09T13:16:02.766Z,33.23
2022-12-09T13:18:35.952Z,33.37
2022-12-09T13:21:06.691Z,33.07
2022-12-09T13:23:51.864Z,35.33
2022-12-09T13:26:31.708Z,34.23
2022-12-09T13:29:07.285Z,32.90
2022-12-09T13:31:37.773Z,33.43
2022-12-09T13:34:22.561Z,42.10
2022-12-09T13:36:50.798Z,35.50
2022-12-09T13:39:52.324Z,35.50
2022-12-09T13:42:56.315Z,45.13
2022-12-09T13:45:33.061Z,37.67
2022-12-09T13:48:05.433Z,38.37
2022-12-09T13:50:39.216Z,35.93
2022-12-09T13:53:22.732Z,36.43
2022-12-09T13:55:53.673Z,36.37
2022-12-09T13:58:37.364Z,35.07
2022-12-09T14:01:15.857Z,33.00
2022-12-09T14:04:02.803Z,33.33
2022-12-09T14:06:37.367Z,31.93
2022-12-09T14:09:19.723Z,31.60
2022-12-09T14:11:49.641Z,38.80
2022-12-09T14:14:39.680Z,35.17
2022-12-09T14:17:21.033Z,35.33
2022-12-09T14:19:56.401Z,32.87
2022-12-09T14:22:37.693Z,34.80
2022-12-09T14:25:48.131Z,32.83
2022-12-09T14:28:36.766Z,33.83
2022-12-09T14:31:08.867Z,37.75
2022-12-09T14:33:39.308Z,33.27
2022-12-09T14:36:21.249Z,32.43
2022-12-09T14:41:52.123Z,33.77
2022-12-09T14:44:29.611Z,37.33
2022-12-09T14:47:15.198Z,39.63
2022-12-09T14:49:49.067Z,38.03
2022-12-09T14:52:23.215Z,36.00
2022-12-09T14:54:55.176Z,33.63
2022-12-09T14:57:27.261Z,38.27
2022-12-09T14:59:57.262Z,44.03
2022-12-09T15:02:27.196Z,47.13
2022-12-09T15:04:56.422Z,46.73
2022-12-09T15:07:26.588Z,43.47
2022-12-09T15:09:58.567Z,41.87
2022-12-09T15:12:31.697Z,40.17
2022-12-09T15:15:05.933Z,50.03
2022-12-09T15:17:38.681Z,41.87
2022-12-09T15:20:08.740Z,40.00
2022-12-09T15:22:36.793Z,39.20
2022-12-09T15:25:07.733Z,39.27
2022-12-09T15:27:35.796Z,36.97
2022-12-09T15:30:21.368Z,37.90
2022-12-09T15:32:49.366Z,39.00
2022-12-09T15:35:18.620Z,37.40
2022-12-09T15:37:47.421Z,35.30
2022-12-09T15:40:20.173Z,37.70
2022-12-09T15:42:51.978Z,48.42
2022-12-09T15:45:24.324Z,37.20
2022-12-09T15:47:57.117Z,36.13
2022-12-09T15:50:28.177Z,40.17
2022-12-09T15:52:59.582Z,39.97
2022-12-09T15:55:32.511Z,40.87
2022-12-09T15:58:04.216Z,47.93
2022-12-09T16:00:32.301Z,39.30
2022-12-09T16:03:00.449Z,38.47
2022-12-09T16:05:28.769Z,35.67
2022-12-09T16:07:59.172Z,37.10
2022-12-09T16:10:29.399Z,39.53
2022-12-09T16:13:09.746Z,56.80
2022-12-09T16:15:47.506Z,48.40
2022-12-09T16:18:21.811Z,37.63
2022-12-09T16:21:02.885Z,37.43
2022-12-09T16:23:31.051Z,37.83
2022-12-09T16:26:07.404Z,46.43
2022-12-09T16:28:36.510Z,39.60
2022-12-09T16:31:16.586Z,45.83
2022-12-09T16:33:49.099Z,38.97
2022-12-09T16:36:20.365Z,40.97
2022-12-09T16:39:18.905Z,41.60
2022-12-09T16:42:01.704Z,38.43
2022-12-09T16:44:33.124Z,35.73
2022-12-09T16:47:11.843Z,34.93
2022-12-09T16:49:41.291Z,34.27
2022-12-09T16:52:13.339Z,33.90
2022-12-09T16:54:42.512Z,38.97
2022-12-09T16:57:14.847Z,34.80
2022-12-09T16:59:43.628Z,38.60
2022-12-09T17:02:19.536Z,37.93
2022-12-09T17:04:48.384Z,37.57
2022-12-09T17:07:16.478Z,37.87
2022-12-09T17:09:44.516Z,34.10
2022-12-09T17:12:14.020Z,35.77
2022-12-09T17:14:42.206Z,35.03
2022-12-09T17:17:10.381Z,42.97
2022-12-09T17:19:38.546Z,36.90
2022-12-09T17:22:06.567Z,35.77
2022-12-09T17:24:34.926Z,34.80
2022-12-09T17:27:03.246Z,35.33
2022-12-09T17:29:32.651Z,36.03
2022-12-09T17:32:00.758Z,35.73
2022-12-09T17:34:29.126Z,36.33
2022-12-09T17:36:58.387Z,36.03
2022-12-09T17:39:26.431Z,37.60
2022-12-09T17:41:54.810Z,40.70
2022-12-09T17:44:23.076Z,37.93
2022-12-09T17:46:52.590Z,34.73
2022-12-09T17:49:21.275Z,36.67
2022-12-09T17:51:49.407Z,39.10
2022-12-09T17:54:17.463Z,36.70
2022-12-09T17:56:46.389Z,37.77
2022-12-09T17:59:17.386Z,39.13
2022-12-09T18:01:46.309Z,38.23
2022-12-09T18:04:16.412Z,37.20
2022-12-09T18:06:46.071Z,41.10
2022-12-09T18:09:16.190Z,44.33
2022-12-09T18:11:44.714Z,43.97
2022-12-09T18:14:13.191Z,38.80
2022-12-09T18:16:41.426Z,38.50
2022-12-09T18:19:12.894Z,41.60
2022-12-09T18:21:42.531Z,45.03
2022-12-09T18:24:10.791Z,41.47
2022-12-09T18:26:42.035Z,38.83
2022-12-09T18:29:10.957Z,38.50
2022-12-09T18:31:39.531Z,39.70
2022-12-09T18:34:07.729Z,41.47
2022-12-09T18:36:35.782Z,41.03
2022-12-09T18:39:05.280Z,39.03
2022-12-09T18:41:33.631Z,38.63
2022-12-09T18:44:03.753Z,40.83
2022-12-09T18:46:34.282Z,40.77
2022-12-09T18:49:04.817Z,41.93
2022-12-09T18:51:33.718Z,40.67
2022-12-09T18:54:04.443Z,37.60
2022-12-09T18:56:32.673Z,36.13
2022-12-09T18:59:09.260Z,36.93
2022-12-09T19:01:40.346Z,36.20
2022-12-09T19:04:12.848Z,42.13
2022-12-09T19:06:42.555Z,40.17
2022-12-09T19:09:14.603Z,51.57
2022-12-09T19:11:43.828Z,40.07
2022-12-09T19:14:12.156Z,36.07
2022-12-09T19:16:46.573Z,34.93
2022-12-09T19:19:16.321Z,38.97
2022-12-09T19:21:45.267Z,41.43
2022-12-09T19:24:17.738Z,37.77
2022-12-09T19:26:47.160Z,36.63
2022-12-09T19:29:17.669Z,35.90
2022-12-09T19:31:47.090Z,38.13
2022-12-09T19:34:17.268Z,32.37
2022-12-09T19:36:46.858Z,33.63
2022-12-09T19:39:17.356Z,35.93
2022-12-09T19:41:46.298Z,30.67
2022-12-09T19:44:31.164Z,31.43
2022-12-09T19:47:04.752Z,28.97
2022-12-09T19:49:34.401Z,31.17
2022-12-09T19:52:03.538Z,34.30
2022-12-09T19:54:33.016Z,34.40
2022-12-09T19:57:01.367Z,34.00
2022-12-09T19:59:29.804Z,35.20
2022-12-09T20:01:57.903Z,34.60
2022-12-09T20:07:16.892Z,36.83
2022-12-09T20:09:46.873Z,37.53
2022-12-09T20:12:14.989Z,37.43
2022-12-09T20:14:46.210Z,37.67
2022-12-09T20:17:14.228Z,37.53
2022-12-09T20:19:42.319Z,38.50
2022-12-09T20:22:10.463Z,39.43
2022-12-09T20:24:38.593Z,39.60
2022-12-09T20:27:08.088Z,37.80
2022-12-09T20:29:38.154Z,37.53
2022-12-09T20:32:08.686Z,37.70
2022-12-09T20:34:37.353Z,37.37
2022-12-09T20:37:05.932Z,38.67
2022-12-09T20:39:34.228Z,38.87
2022-12-09T20:42:02.364Z,40.10
2022-12-09T20:44:32.637Z,39.40
2022-12-09T20:47:00.721Z,37.67
2022-12-09T20:49:29.884Z,39.90
2022-12-09T20:51:58.347Z,36.53
2022-12-09T20:54:26.481Z,39.53
2022-12-09T20:56:54.758Z,36.40
2022-12-09T20:59:22.824Z,36.60
2022-12-09T21:01:54.150Z,36.00
2022-12-09T21:04:22.606Z,36.63
2022-12-09T21:06:50.851Z,36.23
2022-12-09T21:09:22.276Z,35.30
2022-12-09T21:11:51.725Z,35.37
2022-12-09T21:14:20.543Z,36.97
2022-12-09T21:16:50.491Z,38.40
2022-12-09T21:19:24.672Z,46.87
2022-12-09T21:21:53.662Z,40.27
2022-12-09T21:24:23.903Z,39.67
2022-12-09T21:26:53.305Z,38.67
2022-12-09T21:29:26.898Z,38.60
2022-12-09T21:31:58.167Z,37.17
2022-12-09T21:34:27.621Z,37.40
2022-12-09T21:36:55.643Z,36.83
2022-12-09T21:39:23.754Z,35.13
2022-12-09T21:41:52.243Z,30.40
2022-12-09T21:44:22.332Z,33.93
2022-12-09T21:46:50.447Z,33.57
2022-12-09T21:49:18.581Z,33.17
2022-12-09T21:51:48.064Z,33.70
2022-12-09T21:54:16.097Z,34.20
2022-12-09T21:56:44.139Z,35.50
2022-12-09T21:59:12.860Z,32.90
2022-12-09T22:01:42.740Z,34.23
2022-12-09T22:04:13.427Z,34.00
2022-12-09T22:06:41.754Z,32.63
2022-12-09T22:09:12.745Z,34.30
2022-12-09T22:11:41.296Z,32.20
2022-12-09T22:14:11.609Z,35.30
2022-12-09T22:16:42.217Z,33.93
2022-12-09T22:19:14.166Z,34.80
2022-12-09T22:21:42.385Z,30.47
2022-12-09T22:24:12.941Z,33.50
2022-12-09T22:26:43.518Z,32.07
2022-12-09T22:29:14.341Z,31.97
2022-12-09T22:31:43.542Z,32.97
2022-12-09T22:34:14.259Z,33.07
2022-12-09T22:36:43.008Z,33.30
2022-12-09T22:39:14.117Z,33.87
2022-12-09T22:41:43.773Z,32.47
2022-12-09T22:44:13.626Z,32.80
2022-12-09T22:46:42.234Z,33.00
2022-12-09T22:49:13.535Z,35.00
2022-12-09T22:51:42.427Z,33.07
2022-12-09T22:54:12.304Z,34.23
2022-12-09T22:56:42.712Z,33.23
2022-12-09T22:59:11.347Z,33.37
2022-12-09T23:01:39.443Z,35.43
2022-12-09T23:04:08.691Z,32.27
2022-12-09T23:06:38.474Z,35.20
2022-12-09T23:09:07.472Z,34.50
2022-12-09T23:11:37.637Z,34.73
2022-12-09T23:14:05.773Z,33.97
2022-12-09T23:16:34.092Z,34.23
2022-12-09T23:19:02.204Z,33.17
2022-12-09T23:21:31.791Z,33.03
2022-12-09T23:24:03.680Z,33.70
2022-12-09T23:26:34.098Z,33.07
2022-12-09T23:29:05.236Z,33.93
2022-12-09T23:31:36.515Z,33.17
2022-12-09T23:34:05.827Z,36.27
2022-12-09T23:36:35.524Z,33.23
2022-12-09T23:39:05.719Z,34.33
2022-12-09T23:41:33.704Z,33.90
2022-12-09T23:44:03.300Z,34.47
2022-12-09T23:46:31.644Z,33.40
2022-12-09T23:48:59.683Z,34.40
2022-12-09T23:51:29.726Z,34.17
2022-12-09T23:53:59.456Z,32.07
2022-12-09T23:56:29.619Z,34.20
2022-12-09T23:58:58.921Z,35.30
